createdAt,value
2023-03-06T00:02:14.098Z,1.00
2023-03-06T00:05:36.242Z,1.00
2023-03-06T00:08:58.310Z,1.00
2023-03-06T00:12:20.266Z,77.60
2023-03-06T00:15:42.780Z,53.00
2023-03-06T00:19:04.786Z,27.80
2023-03-06T00:22:26.882Z,63.80
2023-03-06T00:25:48.887Z,44.30
2023-03-06T00:29:11.083Z,66.50
2023-03-06T00:32:33.155Z,25.70
2023-03-06T00:35:56.936Z,45.40
2023-03-06T00:39:19.040Z,25.80
2023-03-06T00:42:41.536Z,47.70
2023-03-06T00:46:04.161Z,89.80
2023-03-06T00:49:26.160Z,99.80
2023-03-06T00:52:48.158Z,99.90
2023-03-06T00:56:10.479Z,99.90
2023-03-06T00:59:32.527Z,99.90
2023-03-06T01:02:54.512Z,99.90
2023-03-06T01:06:17.599Z,99.90
2023-03-06T01:09:39.634Z,99.90
2023-03-06T01:13:01.589Z,99.90
2023-03-06T01:16:24.009Z,99.90
2023-03-06T01:19:46.063Z,98.70
2023-03-06T01:23:08.997Z,39.70
2023-03-06T01:26:31.692Z,5.60
2023-03-06T01:29:53.665Z,1.00
2023-03-06T01:33:15.769Z,1.00
2023-03-06T01:36:37.872Z,1.00
2023-03-06T01:40:00.414Z,1.00
2023-03-06T01:43:27.786Z,1.00
2023-03-06T01:46:49.803Z,1.00
2023-03-06T01:50:12.813Z,1.00
2023-03-06T01:53:34.871Z,99.90
2023-03-06T01:57:05.688Z,99.90
2023-03-06T02:00:29.628Z,99.90
2023-03-06T02:03:51.892Z,99.90
2023-03-06T02:07:15.777Z,99.90
2023-03-06T02:10:37.974Z,99.90
2023-03-06T02:14:00.100Z,99.90
2023-03-06T02:17:23.474Z,99.90
2023-03-06T02:20:54.076Z,99.90
2023-03-06T02:24:42.168Z,99.90
2023-03-06T02:28:06.551Z,99.90
2023-03-06T02:31:32.094Z,38.60
2023-03-06T02:34:56.535Z,40.40
2023-03-06T02:38:21.932Z,23.10
2023-03-06T02:41:43.986Z,17.10
2023-03-06T02:45:09.920Z,6.50
2023-03-06T02:48:31.893Z,1.00
2023-03-06T02:51:53.848Z,23.20
2023-03-06T02:55:15.865Z,1.00
2023-03-06T02:58:38.123Z,1.00
2023-03-06T03:02:00.156Z,1.00
2023-03-06T03:05:22.996Z,1.00
2023-03-06T03:08:52.277Z,1.00
2023-03-06T03:12:14.792Z,1.00
2023-03-06T03:15:36.854Z,1.00
2023-03-06T03:18:58.844Z,1.00
2023-03-06T03:22:22.176Z,99.90
2023-03-06T03:25:45.322Z,99.90
2023-03-06T03:29:09.795Z,99.90
2023-03-06T03:32:31.967Z,99.90
2023-03-06T03:36:01.843Z,99.90
2023-03-06T03:39:24.163Z,99.90
2023-03-06T03:42:46.311Z,99.90
2023-03-06T03:46:08.858Z,99.90
2023-03-06T03:49:31.826Z,99.90
2023-03-06T03:52:54.997Z,99.90
2023-03-06T03:56:17.133Z,99.90
2023-03-06T03:59:47.832Z,99.90
2023-03-06T04:03:17.196Z,99.90
2023-03-06T04:06:40.995Z,99.90
2023-03-06T04:10:03.159Z,99.90
2023-03-06T04:13:26.070Z,99.90
2023-03-06T04:16:48.667Z,99.90
2023-03-06T04:20:11.362Z,99.90
2023-03-06T04:23:33.648Z,46.90
2023-03-06T04:26:55.723Z,77.90
2023-03-06T04:30:18.730Z,99.90
2023-03-06T04:33:41.122Z,99.90
2023-03-06T04:37:05.023Z,99.90
2023-03-06T04:40:29.556Z,87.60
2023-03-06T04:43:52.321Z,99.90
2023-03-06T04:47:14.390Z,88.10
2023-03-06T04:50:38.016Z,90.10
2023-03-06T04:53:59.964Z,22.10
2023-03-06T04:57:22.371Z,54.80
2023-03-06T05:00:44.483Z,1.00
2023-03-06T05:04:06.556Z,1.00
2023-03-06T05:07:28.572Z,1.00
2023-03-06T05:10:56.631Z,15.50
2023-03-06T05:14:18.738Z,1.00
2023-03-06T05:17:41.184Z,1.00
2023-03-06T05:21:04.841Z,99.90
2023-03-06T05:24:27.199Z,99.90
2023-03-06T05:27:49.379Z,99.90
2023-03-06T05:31:12.134Z,99.90
2023-03-06T05:34:35.595Z,99.90
2023-03-06T05:37:57.921Z,99.90
2023-03-06T05:41:19.993Z,99.90
2023-03-06T05:44:41.959Z,99.90
2023-03-06T05:48:04.456Z,99.90
2023-03-06T05:51:26.795Z,99.90
2023-03-06T05:54:53.783Z,99.90
2023-03-06T05:58:16.586Z,99.90
2023-03-06T06:01:38.692Z,99.90
2023-03-06T06:05:02.713Z,1.00
2023-03-06T06:08:26.210Z,1.00
2023-03-06T06:11:58.790Z,1.00
2023-03-06T06:15:20.808Z,1.00
2023-03-06T06:18:43.563Z,1.00
2023-03-06T06:22:05.609Z,1.00
2023-03-06T06:25:27.628Z,1.00
2023-03-06T06:28:49.653Z,1.00
2023-03-06T06:32:11.754Z,1.00
2023-03-06T06:35:37.278Z,1.00
2023-03-06T06:38:59.641Z,99.90
2023-03-06T06:42:31.499Z,99.90
2023-03-06T06:46:19.556Z,99.90
2023-03-06T06:49:41.359Z,99.90
2023-03-06T06:53:03.442Z,99.90
2023-03-06T06:56:25.976Z,99.90
2023-03-06T06:59:48.001Z,99.90
2023-03-06T07:03:13.064Z,33.40
2023-03-06T07:06:35.006Z,1.00
2023-03-06T07:09:57.133Z,1.00
2023-03-06T07:13:19.160Z,1.00
2023-03-06T07:16:41.303Z,1.00
2023-03-06T07:20:04.509Z,1.00
2023-03-06T07:23:27.305Z,1.00
2023-03-06T07:26:49.279Z,1.00
2023-03-06T07:30:13.539Z,1.00
2023-03-06T07:33:35.850Z,99.90
2023-03-06T07:36:57.794Z,99.90
2023-03-06T07:40:20.884Z,1.00
2023-03-06T07:43:44.268Z,99.90
2023-03-06T07:47:07.415Z,99.90
2023-03-06T07:50:29.508Z,99.90
2023-03-06T07:53:51.623Z,1.00
2023-03-06T07:57:13.771Z,99.90
2023-03-06T08:00:35.783Z,99.90
2023-03-06T08:03:57.867Z,99.90
2023-03-06T08:07:20.483Z,99.90
2023-03-06T08:10:48.054Z,99.90
2023-03-06T08:14:09.972Z,99.90
2023-03-06T08:17:31.961Z,99.90
2023-03-06T08:21:09.012Z,99.90
2023-03-06T08:24:31.077Z,99.90
2023-03-06T08:27:53.058Z,99.90
2023-03-06T08:31:36.998Z,99.90
2023-03-06T08:34:58.959Z,99.90
2023-03-06T08:38:21.004Z,99.90
2023-03-06T08:41:43.336Z,86.00
2023-03-06T08:45:06.633Z,31.10
2023-03-06T08:48:28.785Z,11.40
2023-03-06T08:51:50.735Z,7.30
2023-03-06T08:55:14.986Z,1.00
2023-03-06T08:58:37.173Z,1.00
2023-03-06T09:01:59.238Z,1.20
2023-03-06T09:05:21.332Z,19.10
2023-03-06T09:08:44.593Z,27.10
2023-03-06T09:12:06.953Z,12.50
2023-03-06T09:15:29.118Z,9.80
2023-03-06T09:18:53.132Z,1.00
2023-03-06T09:22:15.227Z,1.00
2023-03-06T09:25:37.257Z,1.00
2023-03-06T09:28:59.205Z,1.00
2023-03-06T09:32:22.586Z,1.00
2023-03-06T09:35:52.977Z,1.00
2023-03-06T09:39:14.972Z,1.00
2023-03-06T09:42:37.138Z,1.00
2023-03-06T09:45:59.731Z,1.00
2023-03-06T09:49:58.596Z,1.00
2023-03-06T09:53:47.238Z,1.00
2023-03-06T09:57:23.050Z,1.00
2023-03-06T10:01:17.215Z,1.00
2023-03-06T10:04:43.973Z,1.00
2023-03-06T10:08:18.451Z,1.00
2023-03-06T10:11:54.282Z,1.00
2023-03-06T10:15:34.678Z,1.00
2023-03-06T10:19:02.293Z,1.00
2023-03-06T10:22:52.604Z,1.00
2023-03-06T10:26:32.620Z,1.00
2023-03-06T10:30:22.521Z,1.00
2023-03-06T10:34:21.967Z,1.00
2023-03-06T10:37:43.922Z,1.00
2023-03-06T10:41:11.880Z,1.00
2023-03-06T10:44:33.821Z,1.00
2023-03-06T10:48:12.017Z,1.00
2023-03-06T10:51:36.687Z,1.00
2023-03-06T10:55:23.212Z,1.00
2023-03-06T10:58:45.188Z,1.00
2023-03-06T11:02:42.234Z,1.00
2023-03-06T11:06:09.510Z,1.00
2023-03-06T11:09:33.656Z,1.00
2023-03-06T11:13:07.660Z,1.00
2023-03-06T11:16:30.714Z,1.00
2023-03-06T11:20:49.907Z,1.00
2023-03-06T11:24:19.780Z,1.00
2023-03-06T11:27:45.520Z,1.00
2023-03-06T11:31:10.880Z,1.00
2023-03-06T11:34:54.921Z,1.00
2023-03-06T11:38:40.383Z,1.00
2023-03-06T11:42:11.996Z,1.00
2023-03-06T11:45:45.273Z,1.00
2023-03-06T11:49:29.100Z,1.00
2023-03-06T11:53:26.484Z,1.00
2023-03-06T11:57:02.364Z,1.00
2023-03-06T12:00:50.290Z,1.00
2023-03-06T12:04:24.282Z,1.00
2023-03-06T12:08:01.584Z,1.00
2023-03-06T12:11:32.803Z,1.00
2023-03-06T12:14:58.354Z,1.00
2023-03-06T12:18:35.457Z,1.00
2023-03-06T12:22:09.299Z,1.00
2023-03-06T12:25:39.759Z,1.00
2023-03-06T12:29:12.334Z,1.00
2023-03-06T12:32:55.040Z,1.00
2023-03-06T12:36:50.955Z,1.00
2023-03-06T12:40:28.201Z,1.00
2023-03-06T12:44:15.195Z,1.00
2023-03-06T12:47:43.447Z,1.00
2023-03-06T12:51:07.515Z,1.00
2023-03-06T12:54:31.416Z,1.00
2023-03-06T12:57:54.018Z,1.00
2023-03-06T13:01:55.195Z,1.00
2023-03-06T13:06:05.365Z,1.00
2023-03-06T13:09:30.439Z,1.00
2023-03-06T13:13:33.678Z,1.00
2023-03-06T13:17:15.631Z,1.00
2023-03-06T13:20:45.076Z,1.00
2023-03-06T13:24:17.864Z,1.00
2023-03-06T13:27:54.735Z,1.00
2023-03-06T13:31:33.692Z,1.00
2023-03-06T13:34:55.975Z,1.00
2023-03-06T13:38:31.484Z,1.00
2023-03-06T13:41:58.906Z,1.00
2023-03-06T13:45:50.616Z,1.00
2023-03-06T13:49:24.191Z,1.00
2023-03-06T13:53:08.105Z,1.00
2023-03-06T13:56:55.924Z,1.00
2023-03-06T14:00:51.674Z,1.00
2023-03-06T14:04:32.842Z,1.00
2023-03-06T14:08:10.960Z,1.00
2023-03-06T14:11:35.278Z,1.00
2023-03-06T14:15:01.941Z,1.00
2023-03-06T14:18:38.699Z,1.00
2023-03-06T14:22:04.200Z,1.00
2023-03-06T14:25:31.703Z,1.00
2023-03-06T14:29:01.123Z,1.00
2023-03-06T14:32:23.476Z,1.00
2023-03-06T14:35:52.256Z,1.00
2023-03-06T14:39:34.674Z,1.00
2023-03-06T14:43:17.741Z,1.00
2023-03-06T14:46:39.930Z,1.00
2023-03-06T14:50:32.607Z,1.00
2023-03-06T14:54:00.699Z,1.00
2023-03-06T14:57:23.779Z,1.00
2023-03-06T15:00:50.037Z,1.00
2023-03-06T15:04:19.593Z,1.00
2023-03-06T15:07:42.908Z,1.00
2023-03-06T15:11:06.963Z,1.00
2023-03-06T15:14:47.837Z,1.00
2023-03-06T15:18:55.438Z,1.00
2023-03-06T15:22:31.116Z,1.00
2023-03-06T15:25:59.944Z,1.00
2023-03-06T15:29:23.865Z,1.00
2023-03-06T15:32:45.854Z,1.00
2023-03-06T15:36:20.587Z,1.00
2023-03-06T15:39:43.318Z,1.00
2023-03-06T15:43:10.879Z,1.00
2023-03-06T15:46:33.292Z,1.00
2023-03-06T15:49:55.520Z,1.00
2023-03-06T15:53:17.529Z,1.00
2023-03-06T15:56:41.802Z,1.00
2023-03-06T16:00:04.970Z,1.00
2023-03-06T16:03:34.020Z,1.00
2023-03-06T16:06:59.672Z,1.00
2023-03-06T16:10:27.586Z,1.00
2023-03-06T16:13:49.811Z,1.00
2023-03-06T16:17:12.325Z,1.00
2023-03-06T16:20:34.384Z,1.00
2023-03-06T16:23:56.333Z,1.00
2023-03-06T16:27:19.851Z,1.00
2023-03-06T16:30:44.005Z,1.00
2023-03-06T16:34:05.987Z,1.00
2023-03-06T16:37:27.960Z,1.00
2023-03-06T16:40:49.948Z,1.00
2023-03-06T16:44:12.600Z,1.00
2023-03-06T16:47:34.779Z,1.00
2023-03-06T16:50:56.764Z,1.00
2023-03-06T16:54:19.419Z,1.00
2023-03-06T16:57:41.463Z,1.00
2023-03-06T17:01:04.084Z,1.00
2023-03-06T17:04:26.131Z,1.00
2023-03-06T17:07:50.296Z,1.00
2023-03-06T17:11:12.976Z,1.00
2023-03-06T17:14:35.031Z,1.00
2023-03-06T17:17:57.890Z,1.00
2023-03-06T17:21:19.961Z,1.00
2023-03-06T17:24:42.488Z,1.00
2023-03-06T17:28:04.518Z,1.00
2023-03-06T17:31:27.725Z,1.00
2023-03-06T17:34:49.753Z,1.00
2023-03-06T17:38:11.712Z,1.00
2023-03-06T17:41:34.330Z,1.00
2023-03-06T17:44:57.400Z,1.00
2023-03-06T17:48:19.336Z,1.00
2023-03-06T17:51:41.334Z,1.00
2023-03-06T17:55:03.735Z,1.00
2023-03-06T17:58:26.661Z,9.90
2023-03-06T18:01:48.847Z,8.60
2023-03-06T18:05:12.207Z,11.90
2023-03-06T18:08:35.221Z,21.00
2023-03-06T18:11:57.270Z,36.20
2023-03-06T18:15:19.822Z,45.20
2023-03-06T18:18:42.692Z,69.70
2023-03-06T18:22:05.496Z,78.80
2023-03-06T18:25:30.857Z,92.70
2023-03-06T18:28:56.825Z,94.20
2023-03-06T18:32:19.480Z,99.90
2023-03-06T18:35:44.291Z,99.90
2023-03-06T18:39:09.055Z,99.90
2023-03-06T18:42:31.721Z,99.90
2023-03-06T18:45:58.184Z,99.90
2023-03-06T18:49:23.839Z,98.10
2023-03-06T18:52:46.366Z,99.90
2023-03-06T18:56:11.139Z,99.90
2023-03-06T18:59:33.677Z,99.70
2023-03-06T19:02:56.341Z,95.80
2023-03-06T19:06:19.126Z,90.20
2023-03-06T19:09:42.768Z,84.70
2023-03-06T19:13:05.709Z,78.80
2023-03-06T19:16:29.859Z,79.80
2023-03-06T19:19:52.454Z,77.40
2023-03-06T19:23:15.690Z,69.30
2023-03-06T19:26:38.433Z,81.90
2023-03-06T19:30:01.307Z,86.80
2023-03-06T19:33:24.292Z,90.20
2023-03-06T19:36:46.696Z,93.80
2023-03-06T19:40:09.804Z,84.00
2023-03-06T19:43:31.845Z,79.60
2023-03-06T19:46:53.757Z,66.70
2023-03-06T19:50:16.120Z,72.60
2023-03-06T19:53:41.347Z,75.20
2023-03-06T19:57:03.974Z,76.00
2023-03-06T20:00:26.942Z,81.90
2023-03-06T20:03:50.696Z,83.70
2023-03-06T20:07:13.220Z,89.60
2023-03-06T20:10:37.208Z,78.60
2023-03-06T20:14:01.619Z,83.80
2023-03-06T20:17:23.591Z,99.90
2023-03-06T20:20:45.932Z,99.90
2023-03-06T20:24:09.953Z,99.90
2023-03-06T20:27:32.061Z,99.90
2023-03-06T20:30:54.111Z,99.90
2023-03-06T20:34:16.186Z,99.90
2023-03-06T20:37:38.393Z,99.90
2023-03-06T20:41:00.558Z,99.90
2023-03-06T20:44:23.219Z,99.90
2023-03-06T20:47:47.200Z,99.90
2023-03-06T20:51:19.963Z,99.90
2023-03-06T20:54:42.733Z,99.90
2023-03-06T20:58:05.785Z,99.90
2023-03-06T21:01:30.231Z,99.90
2023-03-06T21:04:53.215Z,99.90
2023-03-06T21:08:16.510Z,99.90
2023-03-06T21:11:38.481Z,99.90
2023-03-06T21:15:00.460Z,99.90
2023-03-06T21:18:22.489Z,99.90
2023-03-06T21:21:44.442Z,99.90
2023-03-06T21:25:06.543Z,99.90
2023-03-06T21:28:29.375Z,99.90
2023-03-06T21:31:51.386Z,99.90
2023-03-06T21:35:14.045Z,1.00
2023-03-06T21:38:36.547Z,1.00
2023-03-06T21:41:58.517Z,1.00
2023-03-06T21:45:20.470Z,1.00
2023-03-06T21:48:42.447Z,1.00
2023-03-06T21:52:04.626Z,11.00
2023-03-06T21:55:26.686Z,56.60
2023-03-06T21:58:48.901Z,99.90
2023-03-06T22:02:11.475Z,99.90
2023-03-06T22:05:33.542Z,99.90
2023-03-06T22:08:57.046Z,99.90
2023-03-06T22:12:19.014Z,99.90
2023-03-06T22:15:48.837Z,99.90
2023-03-06T22:19:10.874Z,99.90
2023-03-06T22:22:32.933Z,99.90
2023-03-06T22:25:54.939Z,99.90
2023-03-06T22:29:16.911Z,99.90
2023-03-06T22:32:38.895Z,99.90
2023-03-06T22:36:07.606Z,99.90
2023-03-06T22:39:29.553Z,99.90
2023-03-06T22:42:51.644Z,99.90
2023-03-06T22:46:16.281Z,99.90
2023-03-06T22:49:38.468Z,99.90
2023-03-06T22:53:00.450Z,99.90
2023-03-06T22:56:22.978Z,1.00
2023-03-06T22:59:45.056Z,1.00
2023-03-06T23:03:07.000Z,99.90
2023-03-06T23:06:31.739Z,1.00
2023-03-06T23:09:53.868Z,1.00
2023-03-06T23:13:34.318Z,49.50
2023-03-06T23:17:14.969Z,24.00
2023-03-06T23:20:55.675Z,1.00
2023-03-06T23:24:36.818Z,1.00
2023-03-06T23:27:58.787Z,99.90
2023-03-06T23:31:24.166Z,99.90
2023-03-06T23:34:48.602Z,99.90
2023-03-06T23:38:11.064Z,99.90
2023-03-06T23:41:33.332Z,99.90
2023-03-06T23:44:55.420Z,99.90
2023-03-06T23:48:17.835Z,99.90
2023-03-06T23:51:39.832Z,99.90
2023-03-06T23:55:01.875Z,99.90
2023-03-06T23:58:23.811Z,99.90
